Time;durP1;ratioP1;P1;durP2;ratioP2;P2;SDS_P1;SDS_P2;PMS_P1;PMS_P2;Temp;Humidity;BMP_temperature;BMP_pressure;BME280_temperature;BME280_humidity;BME280_pressure;Samples;Min_cycle;Max_cycle;Signal;HPM_P1;HPM_P2
2024/03/06 00:02:25;;;;;;;0.90;0.90;;;;;;;3.27;100.00;98582.59;6201766;23;20020;-95
2024/03/06 00:04:51;;;;;;;1.00;1.00;;;;;;;3.17;100.00;98585.53;6227813;23;20012;-90
2024/03/06 00:07:17;;;;;;;0.95;0.95;;;;;;;3.32;100.00;98589.91;6256006;23;20012;-94
2024/03/06 00:09:43;;;;;;;0.90;0.90;;;;;;;3.39;100.00;98600.81;6227886;23;20015;-96
2024/03/06 00:12:09;;;;;;;1.00;1.00;;;;;;;3.27;100.00;98596.69;6227173;23;20016;-96
2024/03/06 00:14:36;;;;;;;1.00;1.00;;;;;;;3.25;100.00;98590.38;6231991;23;20424;-90
2024/03/06 00:17:06;;;;;;;1.00;1.00;;;;;;;3.25;100.00;98586.84;6259049;23;20016;-95
2024/03/06 00:19:32;;;;;;;0.88;0.88;;;;;;;3.18;100.00;98587.34;6259193;23;20039;-94
2024/03/06 00:22:01;;;;;;;1.00;1.00;;;;;;;3.11;100.00;98593.09;6230595;23;20003;-96
2024/03/06 00:24:26;;;;;;;1.00;1.00;;;;;;;3.06;100.00;98600.75;6236138;23;20012;-94
2024/03/06 00:26:53;;;;;;;0.90;0.90;;;;;;;3.03;100.00;98598.84;6234283;23;20016;-95
2024/03/06 00:29:19;;;;;;;1.00;1.00;;;;;;;3.11;100.00;98594.00;6229930;23;20014;-93
2024/03/06 00:31:46;;;;;;;0.82;0.82;;;;;;;3.17;100.00;98602.25;6240597;23;20011;-91
2024/03/06 00:34:13;;;;;;;0.93;0.93;;;;;;;3.21;100.00;98604.25;6239869;23;20022;-92
2024/03/06 00:36:45;;;;;;;;;;;;;;;3.36;100.00;98605.94;6241790;23;20022;-93
2024/03/06 00:39:16;;;;;;;1.00;1.00;;;;;;;3.31;100.00;98606.56;6215800;23;19954;-90
2024/03/06 00:41:42;;;;;;;1.00;1.00;;;;;;;3.15;100.00;98603.88;6241281;23;20039;-92
2024/03/06 00:44:08;;;;;;;1.00;1.00;;;;;;;3.16;100.00;98612.69;6212871;23;20000;-91
2024/03/06 00:46:34;;;;;;;1.00;1.00;;;;;;;3.09;100.00;98608.81;6253344;23;20012;-94
2024/03/06 00:49:00;;;;;;;1.00;1.00;;;;;;;3.09;100.00;98612.38;6236327;23;19984;-92
2024/03/06 00:51:29;;;;;;;0.90;0.90;;;;;;;3.05;100.00;98604.19;6242669;23;20012;-93
2024/03/06 00:53:55;;;;;;;1.10;1.10;;;;;;;2.99;100.00;98598.59;6208601;23;20083;-95
2024/03/06 00:56:21;;;;;;;1.00;1.00;;;;;;;3.11;100.00;98603.63;6253620;23;20015;-95
2024/03/06 00:58:47;;;;;;;0.90;0.90;;;;;;;3.13;100.00;98602.00;6225523;23;20008;-91
2024/03/06 01:01:12;;;;;;;0.93;0.93;;;;;;;3.18;100.00;98596.16;6210621;22;20044;-94
2024/03/06 01:03:38;;;;;;;0.90;0.90;;;;;;;3.11;100.00;98598.34;6241418;22;20020;-90
2024/03/06 01:06:04;;;;;;;0.90;0.90;;;;;;;3.11;100.00;98619.44;6242235;22;20023;-90
2024/03/06 01:08:31;;;;;;;1.00;1.00;;;;;;;3.12;100.00;98605.47;6216135;22;20024;-90
2024/03/06 01:11:00;;;;;;;1.00;1.00;;;;;;;3.20;100.00;98604.16;6260718;22;20012;-89
2024/03/06 01:13:26;;;;;;;0.90;0.90;;;;;;;3.19;100.00;98603.25;6181487;23;20027;-90
2024/03/06 01:15:52;;;;;;;1.00;1.00;;;;;;;3.30;100.00;98607.38;6193972;23;20005;-89
2024/03/06 01:18:18;;;;;;;0.90;0.90;;;;;;;3.24;100.00;98607.03;6186265;23;20088;-94
2024/03/06 01:20:44;;;;;;;1.00;1.00;;;;;;;3.21;100.00;98612.16;6209426;23;20060;-94
2024/03/06 01:23:10;;;;;;;0.90;0.90;;;;;;;3.19;100.00;98612.88;6187264;23;19992;-92
2024/03/06 01:25:36;;;;;;;0.90;0.90;;;;;;;3.24;100.00;98607.03;6235399;23;20013;-92
2024/03/06 01:28:02;;;;;;;0.90;0.90;;;;;;;3.37;100.00;98613.91;6172114;23;20024;-96
2024/03/06 01:30:28;;;;;;;0.90;0.90;;;;;;;3.34;100.00;98605.81;6197994;23;20012;-95
2024/03/06 01:32:54;;;;;;;0.80;0.80;;;;;;;3.38;100.00;98606.91;6201973;23;20005;-93
2024/03/06 01:35:20;;;;;;;0.82;0.82;;;;;;;3.44;100.00;98615.13;6208898;23;20017;-91
2024/03/06 01:37:46;;;;;;;1.00;1.00;;;;;;;3.36;100.00;98611.19;6209009;23;20005;-93
2024/03/06 01:40:12;;;;;;;0.90;0.90;;;;;;;3.33;100.00;98607.56;6202972;23;19997;-95
2024/03/06 01:42:38;;;;;;;0.90;0.90;;;;;;;3.38;100.00;98606.91;6205073;23;20085;-91
2024/03/06 01:45:05;;;;;;;1.00;1.00;;;;;;;3.39;100.00;98613.97;6178256;23;20009;-93
2024/03/06 01:47:31;;;;;;;1.10;1.10;;;;;;;3.35;100.00;98602.34;6207655;23;20012;-93
2024/03/06 01:49:57;;;;;;;0.90;0.90;;;;;;;3.45;100.00;98604.69;6207157;23;20000;-94
2024/03/06 01:52:23;;;;;;;0.90;0.90;;;;;;;3.44;100.00;98594.94;6179483;23;20020;-92
2024/03/06 01:54:50;;;;;;;0.90;0.90;;;;;;;3.42;99.75;98601.88;6177474;23;20028;-94
2024/03/06 01:57:19;;;;;;;0.90;0.90;;;;;;;3.37;100.00;98595.44;6154381;23;20012;-92
2024/03/06 01:59:47;;;;;;;0.90;0.90;;;;;;;3.39;100.00;98600.81;6178414;23;20005;-93
2024/03/06 02:02:13;;;;;;;0.93;0.93;;;;;;;3.28;100.00;98609.03;6174395;23;20013;-93
2024/03/06 02:04:39;;;;;;;0.90;0.90;;;;;;;3.15;100.00;98609.16;6172725;23;20004;-94
2024/03/06 02:07:10;;;;;;;1.10;1.10;;;;;;;3.27;100.00;98615.13;6203261;23;20001;-90
2024/03/06 02:09:40;;;;;;;0.90;0.90;;;;;;;3.25;100.00;98614.13;6202492;23;20001;-93
2024/03/06 02:12:10;;;;;;;0.90;0.90;;;;;;;3.25;100.00;98616.75;6175844;23;20449;-91
2024/03/06 02:14:36;;;;;;;0.80;0.80;;;;;;;3.31;100.00;98610.94;6201583;23;20009;-93
2024/03/06 02:17:02;;;;;;;0.90;0.90;;;;;;;3.32;100.00;98605.75;6154205;23;20007;-93
2024/03/06 02:19:40;;;;;;;0.90;0.90;;;;;;;3.39;100.00;98603.44;6154369;23;20019;-95
2024/03/06 02:22:10;;;;;;;1.00;1.00;;;;;;;3.42;100.00;98606.25;6203652;23;20028;-93
2024/03/06 02:24:37;;;;;;;1.00;1.00;;;;;;;3.33;100.00;98598.75;6176821;23;20001;-94
2024/03/06 02:27:05;;;;;;;0.90;0.90;;;;;;;3.34;100.00;98603.19;6201754;23;20009;-93
2024/03/06 02:29:34;;;;;;;1.00;1.00;;;;;;;3.35;100.00;98597.06;6178404;23;20036;-89
2024/03/06 02:32:03;;;;;;;0.90;0.90;;;;;;;3.42;100.00;98595.69;6181915;23;20080;-90
2024/03/06 02:34:32;;;;;;;0.90;0.90;;;;;;;3.47;100.00;98605.69;6182608;23;20092;-90
2024/03/06 02:36:59;;;;;;;0.90;0.90;;;;;;;3.49;100.00;98600.47;6182824;23;19993;-90
2024/03/06 02:39:25;;;;;;;;;;;;;;;3.50;100.00;98600.56;6183778;23;20016;-91
2024/03/06 02:41:51;;;;;;;1.00;1.00;;;;;;;3.44;100.00;98596.69;6209485;23;19920;-91
2024/03/06 02:44:20;;;;;;;1.00;1.00;;;;;;;3.46;100.00;98600.31;6181060;23;20009;-93
2024/03/06 02:46:48;;;;;;;1.00;1.00;;;;;;;3.51;100.00;98597.13;6180209;23;20012;-92
2024/03/06 02:49:14;;;;;;;1.00;1.00;;;;;;;3.40;100.00;98592.97;6182547;23;20008;-93
2024/03/06 02:51:40;;;;;;;0.90;0.90;;;;;;;3.42;100.00;98600.97;6178821;23;20021;-91
2024/03/06 02:54:06;;;;;;;0.90;0.90;;;;;;;3.21;100.00;98601.63;6153221;23;20513;-94
2024/03/06 02:56:33;;;;;;;0.95;0.95;;;;;;;3.22;100.00;98603.44;6197392;23;20036;-95
2024/03/06 02:59:02;;;;;;;0.90;0.90;;;;;;;3.22;100.00;98599.88;6168415;23;20009;-95
2024/03/06 03:01:28;;;;;;;1.00;1.00;;;;;;;3.33;100.00;98602.28;6190714;23;20118;-95
2024/03/06 03:03:53;;;;;;;0.90;0.90;;;;;;;3.30;100.00;98591.56;6139188;23;20381;-96
2024/03/06 03:06:19;;;;;;;0.90;0.90;;;;;;;3.37;100.00;98594.53;6190792;23;20017;-95
2024/03/06 03:08:45;;;;;;;0.90;0.90;;;;;;;3.39;100.00;98584.97;6142466;23;20009;-94
2024/03/06 03:11:10;;;;;;;0.90;0.90;;;;;;;3.37;100.00;98597.19;6188116;23;20005;-94
2024/03/06 03:13:36;;;;;;;0.90;0.90;;;;;;;3.38;100.00;98589.34;6161384;23;20077;-95
2024/03/06 03:16:04;;;;;;;1.00;1.00;;;;;;;3.36;100.00;98590.09;6190505;23;20016;-95
2024/03/06 03:18:29;;;;;;;0.95;0.95;;;;;;;3.35;100.00;98589.16;6144730;23;20005;-93
2024/03/06 03:20:55;;;;;;;0.90;0.90;;;;;;;3.42;100.00;98595.69;6194004;23;20016;-95
2024/03/06 03:23:21;;;;;;;0.90;0.90;;;;;;;3.48;100.00;98602.22;6166440;23;20048;-90
2024/03/06 03:25:48;;;;;;;0.90;0.90;;;;;;;3.44;100.00;98594.03;6173857;23;20013;-90
2024/03/06 03:28:14;;;;;;;1.00;1.00;;;;;;;3.50;100.00;98595.31;6156822;23;20036;-91
2024/03/06 03:30:40;;;;;;;0.90;0.90;;;;;;;3.38;100.00;98599.00;6182046;23;19994;-91
2024/03/06 03:33:05;;;;;;;0.90;0.90;;;;;;;3.34;100.00;98596.19;6155730;23;20025;-93
2024/03/06 03:35:32;;;;;;;1.05;1.05;;;;;;;3.40;100.00;98603.50;6160363;23;20012;-96
2024/03/06 03:37:57;;;;;;;1.00;1.00;;;;;;;3.28;100.00;98603.75;6162848;23;20017;-94
2024/03/06 03:40:23;;;;;;;1.00;1.00;;;;;;;3.21;100.00;98600.69;6189726;23;20009;-93
2024/03/06 03:42:48;;;;;;;0.90;0.90;;;;;;;3.24;100.00;98612.31;6192562;23;20243;-94
2024/03/06 03:45:14;;;;;;;0.90;0.90;;;;;;;3.20;100.00;98615.59;6193670;23;20356;-94
2024/03/06 03:47:42;;;;;;;1.00;1.00;;;;;;;3.15;100.00;98622.34;6198346;23;20080;-92
2024/03/06 03:50:09;;;;;;;1.00;1.00;;;;;;;3.15;100.00;98619.72;6167046;23;20032;-91
2024/03/06 03:52:34;;;;;;;1.00;1.00;;;;;;;3.16;100.00;98632.06;6143735;23;20024;-93
2024/03/06 03:55:01;;;;;;;1.00;1.00;;;;;;;3.16;100.00;98626.78;6198395;23;20806;-92
2024/03/06 03:57:27;;;;;;;0.85;0.85;;;;;;;3.18;100.00;98627.78;6191590;23;20020;-94
2024/03/06 03:59:52;;;;;;;0.90;0.90;;;;;;;3.17;100.00;98626.00;6164774;23;20005;-92
2024/03/06 04:02:18;;;;;;;0.80;0.80;;;;;;;3.34;100.00;98624.28;6164982;23;20025;-93
2024/03/06 04:04:43;;;;;;;1.00;1.00;;;;;;;3.45;100.00;98623.16;6167931;23;20016;-92
2024/03/06 04:07:09;;;;;;;0.90;0.90;;;;;;;3.49;100.00;98629.47;6192660;23;20020;-92
2024/03/06 04:09:36;;;;;;;1.00;1.00;;;;;;;3.49;100.00;98634.75;6191330;23;20009;-92
2024/03/06 04:12:03;;;;;;;0.90;0.90;;;;;;;3.58;100.00;98630.00;6168719;23;20040;-93
2024/03/06 04:14:30;;;;;;;0.80;0.80;;;;;;;3.58;100.00;98625.63;6178013;23;20063;-95
2024/03/06 04:16:56;;;;;;;1.00;1.00;;;;;;;3.66;100.00;98630.41;6152556;23;20051;-91
2024/03/06 04:19:22;;;;;;;0.80;0.80;;;;;;;3.62;100.00;98636.34;6178235;23;20004;-89
2024/03/06 04:21:48;;;;;;;0.90;0.90;;;;;;;3.47;100.00;98639.06;6150443;23;20025;-90
2024/03/06 04:24:14;;;;;;;0.90;0.90;;;;;;;3.47;100.00;98642.59;6192970;23;20072;-94
2024/03/06 04:26:40;;;;;;;1.00;1.00;;;;;;;3.57;100.00;98641.38;6168815;23;20013;-94
2024/03/06 04:29:06;;;;;;;0.90;0.90;;;;;;;3.65;100.00;98647.09;6151783;23;20009;-93
2024/03/06 04:31:32;;;;;;;0.90;0.90;;;;;;;3.65;100.00;98645.34;6170139;23;20361;-92
2024/03/06 04:55:39;;;;;;;0.90;0.90;;;;;;;3.74;100.00;98674.88;6233883;23;20078;-91
2024/03/06 04:58:05;;;;;;;0.90;0.90;;;;;;;3.66;100.00;98676.19;6175005;23;20017;-92
2024/03/06 05:00:30;;;;;;;0.82;0.82;;;;;;;3.81;100.00;98676.09;6202434;23;20009;-88
2024/03/06 05:02:56;;;;;;;0.90;0.90;;;;;;;3.83;100.00;98685.94;6211826;23;20020;-89
2024/03/06 05:05:22;;;;;;;0.90;0.90;;;;;;;3.83;100.00;98672.75;6212144;23;20013;-91
2024/03/06 05:07:48;;;;;;;0.90;0.90;;;;;;;3.86;100.00;98675.53;6212088;23;20024;-90
2024/03/06 05:10:16;;;;;;;0.90;0.90;;;;;;;3.88;100.00;98686.19;6211527;23;20012;-89
2024/03/06 05:12:42;;;;;;;0.90;0.90;;;;;;;3.92;100.00;98680.22;6212105;23;20020;-90
2024/03/06 05:15:08;;;;;;;0.80;0.80;;;;;;;3.94;100.00;98686.50;6210245;23;20009;-88
2024/03/06 05:17:37;;;;;;;0.88;0.88;;;;;;;3.91;100.00;98685.44;6235769;23;20005;-90
2024/03/06 05:20:06;;;;;;;0.90;0.90;;;;;;;3.90;100.00;98694.19;6212211;23;20020;-88
2024/03/06 05:22:40;;;;;;;0.90;0.90;;;;;;;3.85;100.00;98694.81;6213297;23;20088;-86
2024/03/06 05:30:33;;;;;;;0.80;0.80;;;;;;;4.06;100.00;98694.16;6200925;23;20039;-89
2024/03/06 06:10:43;;;;;;;0.80;0.80;;;;;;;4.23;100.00;98740.88;6192304;23;20142;-87
2024/03/06 07:01:16;;;;;;;0.80;0.80;;;;;;;4.76;99.67;98763.03;6189800;23;20028;-88
2024/03/06 07:03:43;;;;;;;0.80;0.80;;;;;;;4.84;99.27;98770.56;6152502;23;20034;-88
2024/03/06 07:06:10;;;;;;;0.90;0.90;;;;;;;4.81;99.01;98773.03;6172785;23;20069;-88
2024/03/06 07:32:57;;;;;;;0.80;0.80;;;;;;;5.11;96.99;98781.63;6199267;23;20039;-89
2024/03/06 07:35:23;;;;;;;0.80;0.80;;;;;;;5.20;96.89;98783.84;6273278;23;19992;-89
2024/03/06 07:43:14;;;;;;;0.80;0.80;;;;;;;5.24;96.01;98792.84;6248173;23;20038;-89
2024/03/06 07:53:49;;;;;;;0.90;0.90;;;;;;;5.54;94.23;98797.00;6197690;22;20040;-91
2024/03/06 07:56:15;;;;;;;0.80;0.80;;;;;;;5.55;93.92;98800.56;6210041;23;19997;-89
2024/03/06 08:12:11;;;;;;;0.80;0.80;;;;;;;5.62;95.48;98806.25;6208500;23;20055;-89
2024/03/06 08:14:44;;;;;;;0.90;0.90;;;;;;;5.58;95.74;98806.94;6187831;23;20008;-91
2024/03/06 08:17:11;;;;;;;0.80;0.80;;;;;;;5.73;95.83;98813.81;6239620;23;20008;-90
2024/03/06 08:22:13;;;;;;;0.80;0.80;;;;;;;6.23;92.50;98805.72;6209250;23;20036;-88
2024/03/06 08:27:25;;;;;;;0.80;0.80;;;;;;;6.13;92.57;98814.03;6220550;23;20096;-89
2024/03/06 08:29:51;;;;;;;0.80;0.80;;;;;;;6.02;92.26;98812.63;6240015;23;20035;-89
2024/03/06 08:37:45;;;;;;;0.80;0.80;;;;;;;5.94;92.45;98813.97;6223631;23;20000;-87
2024/03/06 08:42:54;;;;;;;0.80;0.80;;;;;;;5.87;92.21;98816.28;6179998;22;20295;-89
2024/03/06 08:45:23;;;;;;;0.80;0.80;;;;;;;5.83;92.57;98819.63;6211661;23;20000;-90
2024/03/06 08:47:49;;;;;;;0.90;0.90;;;;;;;5.74;93.65;98821.81;6184689;23;20020;-87
2024/03/06 08:50:17;;;;;;;0.90;0.90;;;;;;;5.93;92.77;98826.31;6205859;23;19993;-88
2024/03/06 08:52:43;;;;;;;0.90;0.90;;;;;;;5.95;93.64;98824.66;6182872;23;20012;-88
2024/03/06 08:57:52;;;;;;;0.82;0.82;;;;;;;6.20;91.64;98826.75;6235633;23;20020;-89
2024/03/06 09:00:18;;;;;;;0.90;0.90;;;;;;;6.08;91.87;98831.44;6187087;23;20019;-89
2024/03/06 09:02:44;;;;;;;0.80;0.80;;;;;;;6.05;91.83;98840.16;6236666;23;20008;-89
2024/03/06 09:05:13;;;;;;;0.90;0.90;;;;;;;5.90;93.10;98836.75;6186585;23;20024;-89
2024/03/06 09:07:42;;;;;;;0.80;0.80;;;;;;;5.96;92.38;98841.44;6236561;23;20064;-88
2024/03/06 09:10:10;;;;;;;0.85;0.85;;;;;;;5.91;92.62;98838.53;6237688;23;20099;-87
2024/03/06 09:12:39;;;;;;;0.90;0.90;;;;;;;5.99;93.35;98845.16;6185607;23;20000;-89
2024/03/06 09:15:11;;;;;;;0.82;0.82;;;;;;;6.17;92.83;98848.69;6184210;23;20000;-90
2024/03/06 09:17:38;;;;;;;0.90;0.90;;;;;;;6.20;92.77;98847.94;6221871;23;20084;-91
2024/03/06 09:20:12;;;;;;;0.90;0.90;;;;;;;6.25;92.69;98850.81;6167030;23;20019;-93
2024/03/06 09:22:41;;;;;;;0.90;0.90;;;;;;;6.23;92.59;98848.09;6172242;23;20013;-91
2024/03/06 09:25:08;;;;;;;0.80;0.80;;;;;;;6.26;93.28;98855.25;6199223;23;20020;-91
2024/03/06 09:27:34;;;;;;;;;;;;;;;6.36;91.98;98853.13;6172797;23;20396;-93
2024/03/06 09:30:00;;;;;;;0.80;0.80;;;;;;;6.09;91.54;98849.16;6192636;23;20328;-93
2024/03/06 09:32:26;;;;;;;0.90;0.90;;;;;;;6.15;92.64;98850.34;6222466;23;20437;-92
2024/03/06 09:34:52;;;;;;;0.90;0.90;;;;;;;6.27;92.80;98847.38;6169884;23;20092;-93
2024/03/06 09:37:20;;;;;;;0.80;0.80;;;;;;;6.35;91.70;98864.56;6221688;23;20008;-93
2024/03/06 09:39:48;;;;;;;0.80;0.80;;;;;;;6.17;92.40;98861.03;6203444;23;20003;-89
2024/03/06 09:42:17;;;;;;;0.85;0.85;;;;;;;6.17;93.20;98861.91;6236897;23;20005;-90
2024/03/06 09:44:43;;;;;;;0.90;0.90;;;;;;;6.55;90.28;98862.84;6237392;23;20016;-90
2024/03/06 09:47:14;;;;;;;0.90;0.90;;;;;;;6.37;92.16;98861.97;6236330;23;19996;-90
2024/03/06 09:49:40;;;;;;;0.90;0.90;;;;;;;6.56;90.85;98869.06;6186477;23;20032;-92
2024/03/06 09:52:08;;;;;;;0.80;0.80;;;;;;;6.69;91.49;98860.84;6185813;23;20016;-90
2024/03/06 09:54:33;;;;;;;;;;;;;;;6.78;91.16;98866.56;6238539;23;20008;-88
2024/03/06 09:56:59;;;;;;;0.90;0.90;;;;;;;6.76;90.94;98873.56;6217980;23;19900;-92
2024/03/06 09:59:25;;;;;;;0.90;0.90;;;;;;;6.75;89.56;98871.72;6144512;23;20050;-91
2024/03/06 10:01:57;;;;;;;;;;;;;;;6.75;90.74;98870.81;6195972;23;20028;-92
2024/03/06 10:04:29;;;;;;;0.90;0.90;;;;;;;6.93;90.52;98867.25;6144639;23;19966;-89
2024/03/06 10:06:56;;;;;;;0.90;0.90;;;;;;;7.01;90.01;98866.72;6149399;23;20088;-89
2024/03/06 10:09:23;;;;;;;0.90;0.90;;;;;;;7.09;89.28;98867.94;6176131;23;20315;-88
2024/03/06 10:11:49;;;;;;;;;;;;;;;7.03;88.98;98865.94;6174474;23;20016;-92
2024/03/06 10:14:15;;;;;;;0.90;0.90;;;;;;;7.17;88.71;98869.22;6198851;23;19964;-89
2024/03/06 10:17:02;;;;;;;0.90;0.90;;;;;;;7.15;88.16;98866.50;6172513;23;20017;-90
2024/03/06 10:19:30;;;;;;;0.90;0.90;;;;;;;6.96;89.14;98865.59;6199701;23;20061;-91
2024/03/06 10:21:57;;;;;;;0.90;0.90;;;;;;;7.31;87.78;98868.06;6172652;23;20008;-90
2024/03/06 10:24:26;;;;;;;;;;;;;;;7.48;87.06;98870.56;6148013;23;20106;-90
2024/03/06 10:26:59;;;;;;;0.90;0.90;;;;;;;7.79;85.84;98868.38;6199260;23;19900;-88
2024/03/06 10:29:29;;;;;;;0.85;0.85;;;;;;;7.78;86.55;98858.59;6200549;23;20077;-90
2024/03/06 10:31:59;;;;;;;0.90;0.90;;;;;;;7.95;86.37;98857.56;6173958;23;20031;-89
2024/03/06 10:34:26;;;;;;;0.80;0.80;;;;;;;7.66;87.72;98864.28;6149039;23;20020;-89
2024/03/06 10:36:59;;;;;;;0.80;0.80;;;;;;;7.65;85.99;98861.56;6175168;23;20009;-89
2024/03/06 10:39:25;;;;;;;0.80;0.80;;;;;;;7.70;86.32;98862.66;6199919;23;20463;-87
2024/03/06 10:41:57;;;;;;;0.80;0.80;;;;;;;7.97;85.94;98861.19;6172242;23;20009;-90
2024/03/06 10:44:26;;;;;;;0.80;0.80;;;;;;;8.00;85.06;98859.47;6175790;23;20008;-88
2024/03/06 10:47:02;;;;;;;0.70;0.70;;;;;;;7.85;83.91;98860.66;6177077;23;20045;-89
2024/03/06 10:49:30;;;;;;;0.80;0.80;;;;;;;7.57;85.23;98862.97;6155017;23;20052;-88
2024/03/06 10:51:59;;;;;;;0.77;0.77;;;;;;;7.60;85.40;98863.13;6206697;23;20052;-88
2024/03/06 10:54:34;;;;;;;0.77;0.77;;;;;;;7.46;86.79;98865.19;6180235;23;20024;-89
2024/03/06 10:57:03;;;;;;;0.80;0.80;;;;;;;7.47;86.21;98861.69;6194022;23;20004;-89
2024/03/06 10:59:30;;;;;;;0.80;0.80;;;;;;;7.72;86.39;98864.56;6206082;23;20009;-89
2024/03/06 11:02:03;;;;;;;0.80;0.80;;;;;;;7.81;87.68;98868.44;6203520;23;20052;-89
2024/03/06 11:04:33;;;;;;;0.77;0.77;;;;;;;7.95;86.20;98868.19;6204156;23;20013;-89
2024/03/06 11:07:02;;;;;;;0.80;0.80;;;;;;;8.01;84.52;98859.56;6203457;23;20013;-88
2024/03/06 11:09:32;;;;;;;0.70;0.70;;;;;;;7.99;84.55;98863.88;6202333;23;20021;-87
2024/03/06 11:26:09;;;;;;;0.80;0.80;;;;;;;8.75;80.23;98860.75;6154547;23;20013;-88
2024/03/06 11:28:50;;;;;;;;;;;;;;;;;;;;;
2024/03/06 11:39:17;;;;;;;0.70;0.70;;;;;;;8.69;79.66;98861.44;6202384;23;20036;-88
2024/03/06 11:41:43;;;;;;;0.70;0.70;;;;;;;8.51;82.28;98857.16;6143548;23;20006;-89
2024/03/06 11:44:22;;;;;;;0.75;0.75;;;;;;;8.45;79.86;98860.47;6147813;23;20022;-92
2024/03/06 11:47:01;;;;;;;0.70;0.70;;;;;;;8.26;80.95;98866.78;6147653;23;20018;-91
2024/03/06 11:49:34;;;;;;;0.70;0.70;;;;;;;8.24;82.56;98863.16;6119993;23;20049;-90
2024/03/06 12:29:56;;;;;;;0.80;0.80;;;;;;;6.97;90.39;98875.38;6124626;23;20142;-86
2024/03/06 12:40:28;;;;;;;0.80;0.80;;;;;;;7.01;90.71;98879.97;6180804;22;20008;-87
2024/03/06 13:10:48;;;;;;;0.80;0.80;;;;;;;7.09;90.78;98873.25;6153489;23;20106;31
2024/03/06 13:13:17;;;;;;;0.80;0.80;;;;;;;7.09;90.10;98881.22;6189999;23;20024;-93
2024/03/06 13:26:52;;;;;;;0.80;0.80;;;;;;;7.03;90.59;98878.28;6201655;23;20043;-90
2024/03/06 13:29:19;;;;;;;0.85;0.85;;;;;;;7.01;91.52;98877.34;6155229;23;20064;-89
2024/03/06 13:31:45;;;;;;;0.80;0.80;;;;;;;6.90;90.90;98871.53;6174158;23;20020;-89
2024/03/06 13:34:26;;;;;;;0.77;0.77;;;;;;;6.83;91.41;98880.03;6174736;23;20032;-87
2024/03/06 13:37:01;;;;;;;0.80;0.80;;;;;;;6.87;92.65;98877.59;6175254;23;20084;-90
2024/03/06 13:39:32;;;;;;;0.85;0.85;;;;;;;6.82;91.40;98873.84;6170254;23;20729;-89
2024/03/06 13:41:58;;;;;;;0.80;0.80;;;;;;;6.86;91.64;98875.78;6190635;23;20016;-91
2024/03/06 13:44:45;;;;;;;0.80;0.80;;;;;;;6.91;91.40;98883.97;6164785;23;20013;-89
2024/03/06 13:47:17;;;;;;;0.80;0.80;;;;;;;6.97;91.82;98880.69;6171811;23;20049;-90
2024/03/06 13:49:59;;;;;;;0.80;0.80;;;;;;;7.09;91.58;98879.50;6147582;23;20017;-90
2024/03/06 13:52:35;;;;;;;0.70;0.70;;;;;;;7.27;91.61;98871.44;6171795;23;20017;-89
2024/03/06 13:55:07;;;;;;;0.70;0.70;;;;;;;7.59;90.12;98870.19;6145700;23;20754;-91
2024/03/06 13:57:37;;;;;;;0.80;0.80;;;;;;;7.75;88.57;98869.06;6172017;23;20009;-91
2024/03/06 14:00:05;;;;;;;0.73;0.73;;;;;;;7.87;88.05;98874.94;6195194;23;20006;-88
2024/03/06 14:02:37;;;;;;;0.80;0.80;;;;;;;7.87;88.66;98869.63;6166608;23;20053;-94
2024/03/06 14:05:03;;;;;;;0.70;0.70;;;;;;;7.84;88.44;98877.44;6168216;23;20013;-91
2024/03/06 14:07:29;;;;;;;0.70;0.70;;;;;;;7.79;87.95;98883.41;6165649;23;20016;-93
2024/03/06 14:09:56;;;;;;;0.70;0.70;;;;;;;7.50;89.48;98875.09;6166638;23;20032;-88
2024/03/06 14:12:23;;;;;;;0.70;0.70;;;;;;;7.65;88.85;98872.19;6193502;23;20013;-88
2024/03/06 14:14:49;;;;;;;0.70;0.70;;;;;;;7.54;90.00;98879.69;6169975;23;20094;-89
2024/03/06 14:17:15;;;;;;;0.80;0.80;;;;;;;7.48;89.42;98882.09;6167096;23;20306;-90
2024/03/06 14:19:42;;;;;;;0.77;0.77;;;;;;;7.41;90.32;98883.56;6193811;23;20036;-92
2024/03/06 14:22:08;;;;;;;0.80;0.80;;;;;;;7.36;89.81;98885.09;6166607;23;20048;-89
2024/03/06 14:24:39;;;;;;;0.80;0.80;;;;;;;7.39;90.12;98884.34;6167710;23;20013;-90
2024/03/06 14:27:06;;;;;;;0.77;0.77;;;;;;;7.50;90.21;98880.41;6164622;23;20013;-90
2024/03/06 14:29:33;;;;;;;;;;;;;;;7.57;90.69;98884.22;6164001;23;20346;-92
2024/03/06 14:32:00;;;;;;;0.70;0.70;;;;;;;7.57;90.05;98889.53;6162579;23;19913;-91
2024/03/06 14:34:26;;;;;;;0.80;0.80;;;;;;;7.66;88.74;98884.63;6188834;23;20009;-93
2024/03/06 14:36:52;;;;;;;0.70;0.70;;;;;;;7.66;89.34;98888.19;6165003;23;20010;-91
2024/03/06 14:39:25;;;;;;;0.77;0.77;;;;;;;7.72;88.91;98890.22;6167383;23;20013;-91
2024/03/06 14:41:52;;;;;;;0.80;0.80;;;;;;;7.60;88.36;98879.97;6169361;23;20081;-92
2024/03/06 14:44:23;;;;;;;0.80;0.80;;;;;;;7.49;89.66;98890.97;6147604;23;20029;-89
2024/03/06 14:46:49;;;;;;;0.70;0.70;;;;;;;7.43;90.42;98886.31;6170843;23;20020;-91
2024/03/06 14:49:16;;;;;;;0.70;0.70;;;;;;;7.43;91.03;98887.22;6146886;23;19998;-90
2024/03/06 14:51:43;;;;;;;0.80;0.80;;;;;;;7.45;90.92;98896.13;6170676;23;20021;-90
2024/03/06 14:54:09;;;;;;;0.63;0.63;;;;;;;7.46;90.93;98892.63;6146692;23;20373;-90
2024/03/06 14:56:35;;;;;;;0.70;0.70;;;;;;;7.38;90.78;98887.84;6167008;23;20017;-92
2024/03/06 14:59:02;;;;;;;0.70;0.70;;;;;;;7.32;90.79;98887.56;6165751;23;20337;-89
2024/03/06 15:01:28;;;;;;;0.70;0.70;;;;;;;7.28;90.87;98881.22;6166865;23;20061;-88
2024/03/06 15:03:58;;;;;;;0.80;0.80;;;;;;;7.41;91.50;98887.97;6166338;23;20025;-93
2024/03/06 15:06:24;;;;;;;0.70;0.70;;;;;;;7.41;91.42;98890.63;6167599;23;20020;-89
2024/03/06 15:08:51;;;;;;;0.70;0.70;;;;;;;7.51;91.08;98891.94;6192526;23;20044;-92
2024/03/06 15:11:17;;;;;;;0.70;0.70;;;;;;;7.37;90.74;98886.91;6189054;23;20075;-90
2024/03/06 15:13:43;;;;;;;0.80;0.80;;;;;;;7.44;91.02;98883.72;6190383;23;20026;-89
2024/03/06 15:16:09;;;;;;;0.70;0.70;;;;;;;7.45;90.35;98885.50;6143575;23;20469;-91
2024/03/06 15:18:37;;;;;;;0.80;0.80;;;;;;;7.45;91.16;98887.25;6170674;23;20040;-89
2024/03/06 15:21:03;;;;;;;0.80;0.80;;;;;;;7.57;90.49;98886.88;6169957;23;20116;-89
2024/03/06 15:23:32;;;;;;;0.70;0.70;;;;;;;7.63;89.84;98882.75;6147333;23;20013;-89
2024/03/06 15:26:01;;;;;;;0.80;0.80;;;;;;;7.58;90.03;98881.66;6189792;23;20061;-89
2024/03/06 15:28:28;;;;;;;0.73;0.73;;;;;;;7.51;90.45;98892.84;6153116;23;20005;-89
2024/03/06 15:31:03;;;;;;;0.70;0.70;;;;;;;7.56;90.13;98893.03;6178512;23;20036;-90
2024/03/06 15:33:31;;;;;;;0.80;0.80;;;;;;;7.46;90.39;98891.72;6179024;23;20028;-90
2024/03/06 15:35:58;;;;;;;0.70;0.70;;;;;;;7.48;90.84;98899.78;6179678;23;20009;-89
2024/03/06 15:38:26;;;;;;;0.70;0.70;;;;;;;7.36;91.33;98906.34;6178521;23;20065;-89
2024/03/06 15:51:40;;;;;;;0.80;0.80;;;;;;;7.40;91.90;98897.69;6227566;23;20016;-88
2024/03/06 15:54:08;;;;;;;0.70;0.70;;;;;;;7.52;91.27;98899.03;6188539;23;20005;-87
2024/03/06 15:56:34;;;;;;;0.70;0.70;;;;;;;7.52;91.55;98899.97;6212059;23;20043;-90
2024/03/06 15:59:00;;;;;;;0.70;0.70;;;;;;;7.60;91.00;98895.88;6237710;23;20017;-88
2024/03/06 16:01:26;;;;;;;0.70;0.70;;;;;;;7.47;92.14;98898.84;6236373;23;20031;-90
2024/03/06 16:03:52;;;;;;;0.70;0.70;;;;;;;7.60;91.28;98900.28;6239212;23;19988;-87
2024/03/06 16:06:18;;;;;;;0.70;0.70;;;;;;;7.46;91.52;98902.34;6213766;23;20061;-87
2024/03/06 16:19:36;;;;;;;0.80;0.80;;;;;;;7.34;92.85;98901.81;6206741;23;20012;-87
2024/03/06 16:22:05;;;;;;;0.70;0.70;;;;;;;7.29;93.50;98912.22;6179589;23;20012;-89
2024/03/06 16:24:32;;;;;;;0.70;0.70;;;;;;;7.44;92.54;98907.59;6150262;23;20016;-91
2024/03/06 16:26:57;;;;;;;0.70;0.70;;;;;;;7.26;92.30;98913.81;6147805;23;20095;-89
2024/03/06 16:29:24;;;;;;;0.70;0.70;;;;;;;7.23;92.63;98917.25;6173463;23;20037;-89
2024/03/06 16:31:52;;;;;;;0.70;0.70;;;;;;;7.23;93.16;98919.88;6199338;23;20015;-90
2024/03/06 16:34:23;;;;;;;0.70;0.70;;;;;;;7.18;93.45;98922.34;6199478;23;20020;-92
2024/03/06 16:36:49;;;;;;;0.70;0.70;;;;;;;7.17;93.72;98927.59;6176269;23;20092;-94
2024/03/06 16:39:16;;;;;;;0.80;0.80;;;;;;;7.12;94.89;98926.47;6176023;23;20032;-90
2024/03/06 16:41:45;;;;;;;0.90;0.90;;;;;;;7.08;95.09;98925.41;6148106;23;20060;-90
2024/03/06 16:44:11;;;;;;;0.80;0.80;;;;;;;7.10;95.65;98939.69;6176966;23;20001;-87
2024/03/06 16:46:38;;;;;;;0.80;0.80;;;;;;;7.17;95.08;98935.53;6159748;23;20001;-87
2024/03/06 16:49:05;;;;;;;0.80;0.80;;;;;;;7.09;95.05;98935.22;6183836;23;19993;-87
2024/03/06 17:02:06;;;;;;;0.60;0.60;;;;;;;6.86;98.27;98941.19;6208563;23;20032;-88
2024/03/06 17:04:33;;;;;;;0.70;0.70;;;;;;;7.00;98.08;98945.41;6181118;23;20068;-87